Time;durP1;ratioP1;P1;durP2;ratioP2;P2;SDS_P1;SDS_P2;PMS_P1;PMS_P2;Temp;Humidity;BMP_temperature;BMP_pressure;BME280_temperature;BME280_humidity;BME280_pressure;Samples;Min_cycle;Max_cycle;Signal;HPM_P1;HPM_P2
2021/08/26 00:06:57;;;;;;;18.38;10.10;;;;;;;;;;5096187;28;20031;-67
2021/08/26 00:09:23;;;;;;;13.70;10.30;;;;;;;;;;5097423;28;20027;-65
2021/08/26 00:11:51;;;;;;;12.35;9.80;;;;;;;;;;5094391;28;20020;-68
2021/08/26 00:14:18;;;;;;;13.73;9.80;;;;;;;;;;5095620;28;20402;-65
2021/08/26 00:16:44;;;;;;;13.07;10.20;;;;;;;;;;5097546;28;20050;-66
2021/08/26 00:19:14;;;;;;;14.75;9.93;;;;;;;;;;5095333;28;20031;-66
2021/08/26 00:21:40;;;;;;;13.90;10.43;;;;;;;;;;5092795;28;20111;-66
2021/08/26 00:24:06;;;;;;;13.55;10.32;;;;;;;;;;5097736;28;20024;-65
2021/08/26 00:26:33;;;;;;;12.88;10.25;;;;;;;;;;5093457;28;20479;-65
2021/08/26 00:29:00;;;;;;;37.78;11.65;;;;;;;;;;5090765;28;20038;-65
2021/08/26 00:31:26;;;;;;;20.25;11.55;;;;;;;;;;5080324;28;20376;-65
2021/08/26 00:33:52;;;;;;;27.55;11.82;;;;;;;;;;5096197;28;20079;-66
2021/08/26 00:36:18;;;;;;;36.20;13.35;;;;;;;;;;5094411;28;20067;-65
2021/08/26 00:38:45;;;;;;;17.23;11.48;;;;;;;;;;5094755;28;20026;-66
2021/08/26 00:41:20;;;;;;;19.63;11.57;;;;;;;;;;5094984;28;20020;-67
2021/08/26 00:43:46;;;;;;;22.52;11.95;;;;;;;;;;5093975;28;20020;-66
2021/08/26 00:46:13;;;;;;;26.83;12.23;;;;;;;;;;5081398;28;20508;-65
2021/08/26 00:48:43;;;;;;;15.30;11.65;;;;;;;;;;5092991;28;20616;-68
2021/08/26 00:51:09;;;;;;;16.17;12.13;;;;;;;;;;5091567;28;20028;-65
2021/08/26 00:53:35;;;;;;;14.60;11.88;;;;;;;;;;5095497;28;20020;-66
2021/08/26 00:56:01;;;;;;;12.57;11.30;;;;;;;;;;5095176;28;20590;-66
2021/08/26 00:58:31;;;;;;;20.52;12.30;;;;;;;;;;5091890;28;20024;-65
2021/08/26 01:00:59;;;;;;;15.45;11.85;;;;;;;;;;5097356;28;20050;-66
2021/08/26 01:03:29;;;;;;;15.65;12.43;;;;;;;;;;5093523;28;20543;-65
2021/08/26 01:05:56;;;;;;;15.52;12.00;;;;;;;;;;5098767;28;20035;-65
2021/08/26 01:08:45;;;;;;;17.50;10.88;;;;;;;;;;5092844;28;20429;-65
2021/08/26 01:11:12;;;;;;;18.08;11.00;;;;;;;;;;5093347;28;20023;-65
2021/08/26 01:13:39;;;;;;;13.32;10.10;;;;;;;;;;5096021;28;20019;-68
2021/08/26 01:16:06;;;;;;;17.45;10.48;;;;;;;;;;5092107;28;20473;-65
2021/08/26 01:18:36;;;;;;;16.98;10.30;;;;;;;;;;5093184;28;20625;-65
2021/08/26 01:21:03;;;;;;;12.02;10.43;;;;;;;;;;5091669;28;20439;-66
2021/08/26 01:23:31;;;;;;;13.90;9.38;;;;;;;;;;5094114;28;20031;-66
2021/08/26 01:25:58;;;;;;;17.35;9.93;;;;;;;;;;5092431;28;20023;-66
2021/08/26 01:28:24;;;;;;;10.77;9.55;;;;;;;;;;5096053;28;20471;-66
2021/08/26 01:30:50;;;;;;;12.32;9.20;;;;;;;;;;5092684;28;20023;-65
2021/08/26 01:33:20;;;;;;;16.17;9.60;;;;;;;;;;5094089;28;20166;-65
2021/08/26 01:35:47;;;;;;;26.40;10.90;;;;;;;;;;5091421;28;20024;-66
2021/08/26 01:38:20;;;;;;;13.07;10.30;;;;;;;;;;5097458;28;20027;-66
2021/08/26 01:40:46;;;;;;;11.77;9.77;;;;;;;;;;5091718;28;20064;-67
2021/08/26 01:43:13;;;;;;;11.63;10.20;;;;;;;;;;5084790;28;20038;-66
2021/08/26 01:45:40;;;;;;;13.55;10.32;;;;;;;;;;5091740;28;20020;-66
2021/08/26 01:48:06;;;;;;;14.45;10.45;;;;;;;;;;5089474;28;20237;-65
2021/08/26 01:50:32;;;;;;;14.02;10.98;;;;;;;;;;5093717;28;20028;-66
2021/08/26 01:52:58;;;;;;;11.18;10.18;;;;;;;;;;5076913;28;20490;-66
2021/08/26 01:55:24;;;;;;;12.10;10.90;;;;;;;;;;5093587;28;20043;-67
2021/08/26 01:57:51;;;;;;;14.18;10.98;;;;;;;;;;5092308;28;20027;-67
2021/08/26 02:00:17;;;;;;;13.50;11.18;;;;;;;;;;5092705;28;20421;-65
2021/08/26 02:02:43;;;;;;;15.43;11.02;;;;;;;;;;5095566;28;20038;-67
2021/08/26 02:05:09;;;;;;;12.38;10.95;;;;;;;;;;5091121;28;20016;-66
2021/08/26 02:07:35;;;;;;;13.52;9.82;;;;;;;;;;5096698;28;20100;-66
2021/08/26 02:10:02;;;;;;;14.23;10.57;;;;;;;;;;5090475;28;20085;-65
2021/08/26 02:12:28;;;;;;;16.40;10.82;;;;;;;;;;5094389;28;20028;-67
2021/08/26 02:14:54;;;;;;;16.70;11.07;;;;;;;;;;5094426;28;20157;-68
2021/08/26 02:17:20;;;;;;;11.73;10.60;;;;;;;;;;5094038;28;20024;-65
2021/08/26 02:19:46;;;;;;;14.40;10.57;;;;;;;;;;5095184;28;20028;-66
2021/08/26 02:22:12;;;;;;;13.75;10.27;;;;;;;;;;5091988;28;20036;-65
2021/08/26 02:24:38;;;;;;;15.88;11.40;;;;;;;;;;5093202;28;20084;-66
2021/08/26 02:27:04;;;;;;;13.68;10.82;;;;;;;;;;5094313;28;20050;-66
2021/08/26 02:29:31;;;;;;;12.52;11.23;;;;;;;;;;5087690;28;20028;-65
2021/08/26 02:31:57;;;;;;;13.05;10.80;;;;;;;;;;5092787;28;20426;-65
2021/08/26 02:34:23;;;;;;;16.67;11.15;;;;;;;;;;5095995;28;20436;-65
2021/08/26 02:36:49;;;;;;;14.18;10.93;;;;;;;;;;5093491;28;20483;-65
2021/08/26 02:39:15;;;;;;;12.30;10.93;;;;;;;;;;5089155;28;20575;-65
2021/08/26 02:41:41;;;;;;;18.05;11.05;;;;;;;;;;5093842;28;20027;-66
2021/08/26 02:44:08;;;;;;;15.75;10.80;;;;;;;;;;5092772;28;20020;-66
2021/08/26 02:46:34;;;;;;;16.67;12.30;;;;;;;;;;5090376;28;20384;-65
2021/08/26 02:49:00;;;;;;;13.57;11.02;;;;;;;;;;5093598;28;20024;-66
2021/08/26 02:51:26;;;;;;;11.98;10.48;;;;;;;;;;5088710;28;20024;-67
2021/08/26 02:53:52;;;;;;;14.57;10.52;;;;;;;;;;5094244;28;20022;-66
2021/08/26 02:56:18;;;;;;;13.40;9.98;;;;;;;;;;5093103;28;20038;-65
2021/08/26 02:58:45;;;;;;;13.73;10.57;;;;;;;;;;5094351;28;20101;-67
2021/08/26 03:01:11;;;;;;;15.20;11.07;;;;;;;;;;5090272;28;20059;-65
2021/08/26 03:03:37;;;;;;;16.73;10.82;;;;;;;;;;5084721;28;20159;-65
2021/08/26 03:06:03;;;;;;;12.20;10.30;;;;;;;;;;5084000;28;20667;-65
2021/08/26 03:08:31;;;;;;;13.98;10.60;;;;;;;;;;5085125;28;20514;-65
2021/08/26 03:10:57;;;;;;;13.80;10.57;;;;;;;;;;5083203;28;20115;-65
2021/08/26 03:13:23;;;;;;;14.32;10.48;;;;;;;;;;5083904;28;20089;-64
2021/08/26 03:15:49;;;;;;;12.77;9.88;;;;;;;;;;5089283;28;20036;-65
2021/08/26 03:18:16;;;;;;;13.02;10.88;;;;;;;;;;5083940;28;20039;-65
2021/08/26 03:20:42;;;;;;;14.68;10.27;;;;;;;;;;5089949;28;20031;-65
2021/08/26 03:23:09;;;;;;;15.82;9.95;;;;;;;;;;5089378;28;20067;-65
2021/08/26 03:25:35;;;;;;;13.70;9.75;;;;;;;;;;5082188;28;20380;-65
2021/08/26 03:28:01;;;;;;;16.58;10.20;;;;;;;;;;5090132;28;20108;-65
2021/08/26 03:30:27;;;;;;;13.30;9.90;;;;;;;;;;5089328;28;20472;-65
2021/08/26 03:32:53;;;;;;;12.40;9.43;;;;;;;;;;5068655;28;20039;-67
2021/08/26 03:35:19;;;;;;;15.27;9.05;;;;;;;;;;5083832;28;20035;-65
2021/08/26 03:37:46;;;;;;;11.40;10.00;;;;;;;;;;5089711;28;20035;-64
2021/08/26 03:40:12;;;;;;;15.32;9.55;;;;;;;;;;5091928;28;20043;-65
2021/08/26 03:42:38;;;;;;;14.27;9.50;;;;;;;;;;5086049;28;20036;-67
2021/08/26 03:45:05;;;;;;;13.85;9.50;;;;;;;;;;5089947;28;20096;-64
2021/08/26 03:47:31;;;;;;;12.55;9.98;;;;;;;;;;5086852;28;20103;-65
2021/08/26 03:49:57;;;;;;;16.77;10.65;;;;;;;;;;5090815;28;20023;-64
2021/08/26 03:52:23;;;;;;;15.80;9.98;;;;;;;;;;5087881;28;20035;-65
2021/08/26 03:54:49;;;;;;;15.48;9.50;;;;;;;;;;5092458;28;20043;-65
2021/08/26 03:57:15;;;;;;;14.70;9.15;;;;;;;;;;5089110;28;20028;-64
2021/08/26 03:59:42;;;;;;;15.98;8.98;;;;;;;;;;5089520;28;20048;-65
2021/08/26 04:02:08;;;;;;;13.77;9.05;;;;;;;;;;5090078;28;20028;-65
2021/08/26 04:04:34;;;;;;;15.98;9.68;;;;;;;;;;5085711;28;20085;-64
2021/08/26 04:07:00;;;;;;;12.18;9.43;;;;;;;;;;5091804;28;20032;-65
2021/08/26 04:09:26;;;;;;;10.02;9.02;;;;;;;;;;5084029;28;20031;-65
2021/08/26 04:11:52;;;;;;;17.83;9.38;;;;;;;;;;5087738;28;20034;-64
2021/08/26 04:14:18;;;;;;;15.52;9.98;;;;;;;;;;5087404;28;20024;-64
2021/08/26 04:16:45;;;;;;;12.07;8.68;;;;;;;;;;5086651;28;20040;-65
2021/08/26 04:19:11;;;;;;;14.85;9.88;;;;;;;;;;5088117;28;20544;-66
2021/08/26 04:21:37;;;;;;;13.23;8.70;;;;;;;;;;5088923;28;20607;-69
2021/08/26 04:24:03;;;;;;;15.00;9.38;;;;;;;;;;5089772;28;20089;-66
2021/08/26 04:26:29;;;;;;;13.40;9.00;;;;;;;;;;5087016;28;20036;-65
2021/08/26 04:28:56;;;;;;;14.57;9.70;;;;;;;;;;5092186;28;20020;-65
2021/08/26 04:31:22;;;;;;;13.68;9.57;;;;;;;;;;5085736;28;20046;-65
2021/08/26 04:33:48;;;;;;;12.30;9.55;;;;;;;;;;5085152;28;20028;-65
2021/08/26 04:36:14;;;;;;;13.32;9.70;;;;;;;;;;5091163;28;20036;-65
2021/08/26 04:38:43;;;;;;;12.40;10.68;;;;;;;;;;5087238;28;20083;-68
2021/08/26 04:41:09;;;;;;;26.02;11.43;;;;;;;;;;5084355;28;20036;-65
2021/08/26 04:43:35;;;;;;;22.58;10.45;;;;;;;;;;5084785;28;20030;-65
2021/08/26 04:46:02;;;;;;;14.07;10.25;;;;;;;;;;5086925;28;20024;-65
2021/08/26 04:48:28;;;;;;;17.85;10.18;;;;;;;;;;5087742;28;20502;-65
2021/08/26 04:50:54;;;;;;;15.80;10.07;;;;;;;;;;5086744;28;20060;-64
2021/08/26 04:53:20;;;;;;;11.93;10.80;;;;;;;;;;5090751;28;20035;-66
2021/08/26 04:55:46;;;;;;;18.45;11.45;;;;;;;;;;5086299;28;20040;-66
2021/08/26 04:58:13;;;;;;;17.55;10.55;;;;;;;;;;5089116;28;20034;-65
2021/08/26 05:00:41;;;;;;;13.35;10.65;;;;;;;;;;5087732;28;20031;-68
2021/08/26 05:03:07;;;;;;;16.27;10.73;;;;;;;;;;5086448;28;20081;-65
2021/08/26 05:05:33;;;;;;;17.23;10.65;;;;;;;;;;5089285;28;20530;-69
2021/08/26 05:08:00;;;;;;;13.43;9.85;;;;;;;;;;5082980;28;20103;-64
2021/08/26 05:10:26;;;;;;;13.90;10.25;;;;;;;;;;5088310;28;20460;-65
2021/08/26 05:12:52;;;;;;;10.25;9.25;;;;;;;;;;5085706;28;20092;-65
2021/08/26 05:15:18;;;;;;;14.07;10.23;;;;;;;;;;5087906;28;20127;-65
2021/08/26 05:17:44;;;;;;;26.48;10.93;;;;;;;;;;5085852;28;20024;-66
2021/08/26 05:20:10;;;;;;;27.88;10.48;;;;;;;;;;5090111;28;20824;-64
2021/08/26 05:22:37;;;;;;;24.35;10.98;;;;;;;;;;5087218;28;20028;-66
2021/08/26 05:25:03;;;;;;;18.13;10.55;;;;;;;;;;5088551;28;20157;-64
2021/08/26 05:27:29;;;;;;;14.65;10.23;;;;;;;;;;5088365;28;20103;-65
2021/08/26 05:29:55;;;;;;;14.88;9.43;;;;;;;;;;5087410;28;20021;-64
2021/08/26 05:32:21;;;;;;;18.27;10.45;;;;;;;;;;5089289;28;20059;-65
2021/08/26 05:34:48;;;;;;;17.02;10.18;;;;;;;;;;5084110;28;20078;-65
2021/08/26 05:37:14;;;;;;;20.88;10.55;;;;;;;;;;5082403;28;20046;-65
2021/08/26 05:39:40;;;;;;;21.65;12.13;;;;;;;;;;5087131;28;20688;-64
2021/08/26 05:42:06;;;;;;;18.65;11.15;;;;;;;;;;5069335;28;20045;-68
2021/08/26 05:44:32;;;;;;;20.70;10.95;;;;;;;;;;5078737;28;20506;-65
2021/08/26 05:46:59;;;;;;;14.82;11.43;;;;;;;;;;5082950;28;20032;-65
2021/08/26 05:49:25;;;;;;;27.23;11.82;;;;;;;;;;5080605;28;20028;-66
2021/08/26 05:52:16;;;;;;;21.88;11.48;;;;;;;;;;5082603;28;20028;-65
2021/08/26 05:54:42;;;;;;;14.93;10.90;;;;;;;;;;5083147;28;20051;-64
2021/08/26 05:57:08;;;;;;;16.83;11.20;;;;;;;;;;5071369;28;20299;-65
2021/08/26 05:59:34;;;;;;;13.13;10.27;;;;;;;;;;5085143;28;20574;-65
2021/08/26 06:02:01;;;;;;;16.30;11.32;;;;;;;;;;5080615;28;20120;-65
2021/08/26 06:04:27;;;;;;;17.17;12.07;;;;;;;;;;5082693;28;20046;-66
2021/08/26 06:06:54;;;;;;;22.83;10.98;;;;;;;;;;5082339;28;20260;-67
2021/08/26 06:09:20;;;;;;;16.38;10.88;;;;;;;;;;5080165;28;20032;-68
2021/08/26 06:11:46;;;;;;;12.85;10.65;;;;;;;;;;5078264;28;20023;-66
2021/08/26 06:14:13;;;;;;;13.88;10.23;;;;;;;;;;5082776;28;20115;-70
2021/08/26 06:16:39;;;;;;;14.27;9.95;;;;;;;;;;5079585;28;20035;-66
2021/08/26 06:19:05;;;;;;;12.63;10.38;;;;;;;;;;5081456;28;20032;-68
2021/08/26 06:21:31;;;;;;;14.57;10.48;;;;;;;;;;5080026;28;20024;-69
2021/08/26 06:24:01;;;;;;;16.48;11.57;;;;;;;;;;5080094;28;20184;-70
2021/08/26 06:26:27;;;;;;;13.35;9.80;;;;;;;;;;5081277;28;20036;-66
2021/08/26 06:28:53;;;;;;;15.15;11.02;;;;;;;;;;5086556;28;20038;-67
2021/08/26 06:31:19;;;;;;;14.32;11.15;;;;;;;;;;5085628;28;20036;-67
2021/08/26 06:33:45;;;;;;;12.95;11.57;;;;;;;;;;5086846;28;20019;-67
2021/08/26 06:36:12;;;;;;;16.15;10.82;;;;;;;;;;5083468;28;20504;-67
2021/08/26 06:38:38;;;;;;;19.08;11.82;;;;;;;;;;5086477;28;20016;-67
2021/08/26 06:41:04;;;;;;;11.85;10.50;;;;;;;;;;5087457;28;20028;-69
2021/08/26 06:43:30;;;;;;;16.35;10.00;;;;;;;;;;5086867;28;20027;-68
2021/08/26 06:45:56;;;;;;;17.45;10.30;;;;;;;;;;5086386;28;20035;-69
2021/08/26 06:48:22;;;;;;;22.27;11.27;;;;;;;;;;5088073;28;20024;-67
2021/08/26 06:50:48;;;;;;;14.85;10.95;;;;;;;;;;5084929;28;20031;-67
2021/08/26 06:53:14;;;;;;;15.18;10.68;;;;;;;;;;5085071;28;20034;-66
2021/08/26 06:55:41;;;;;;;15.55;11.02;;;;;;;;;;5087537;28;20052;-66
2021/08/26 06:58:07;;;;;;;16.02;10.90;;;;;;;;;;5091628;28;20407;-67
2021/08/26 07:00:33;;;;;;;21.35;11.05;;;;;;;;;;5088808;28;20020;-67
2021/08/26 07:02:59;;;;;;;15.43;10.60;;;;;;;;;;5088997;28;20039;-67
2021/08/26 07:05:25;;;;;;;17.50;10.38;;;;;;;;;;5089598;28;20050;-67
2021/08/26 07:07:51;;;;;;;16.02;10.75;;;;;;;;;;5090741;28;20442;-67
2021/08/26 07:10:18;;;;;;;19.27;11.23;;;;;;;;;;5092801;28;20054;-66
2021/08/26 07:12:44;;;;;;;24.67;12.50;;;;;;;;;;5089463;28;20024;-66
2021/08/26 07:15:10;;;;;;;15.02;10.00;;;;;;;;;;5088826;28;20320;-67
2021/08/26 07:17:36;;;;;;;14.50;9.75;;;;;;;;;;5090265;28;20075;-67
2021/08/26 07:20:04;;;;;;;17.35;10.60;;;;;;;;;;5074991;28;20031;-66
2021/08/26 07:22:30;;;;;;;18.35;10.90;;;;;;;;;;5089398;28;20038;-67
2021/08/26 07:24:56;;;;;;;15.85;10.23;;;;;;;;;;5087604;28;20057;-69
2021/08/26 07:27:22;;;;;;;24.13;10.65;;;;;;;;;;5091354;28;20050;-67
2021/08/26 07:29:48;;;;;;;18.30;10.10;;;;;;;;;;5088247;28;20032;-67
2021/08/26 07:32:14;;;;;;;16.00;9.48;;;;;;;;;;5090415;28;20074;-66
2021/08/26 07:34:41;;;;;;;21.08;10.45;;;;;;;;;;5086957;28;20040;-67
2021/08/26 07:37:07;;;;;;;24.75;11.80;;;;;;;;;;5090015;28;20571;-67
2021/08/26 07:39:33;;;;;;;21.30;10.80;;;;;;;;;;5087628;28;20036;-67
2021/08/26 07:41:59;;;;;;;20.48;10.05;;;;;;;;;;5095117;28;20802;-66
2021/08/26 07:44:25;;;;;;;22.80;10.93;;;;;;;;;;5087653;28;20424;-66
2021/08/26 07:46:51;;;;;;;15.23;9.65;;;;;;;;;;5091015;28;20111;-66
2021/08/26 07:49:17;;;;;;;25.55;10.82;;;;;;;;;;5083918;28;20077;-67
2021/08/26 07:51:44;;;;;;;23.10;10.30;;;;;;;;;;5088320;28;20471;-69
2021/08/26 07:54:10;;;;;;;20.50;9.90;;;;;;;;;;5087955;28;20056;-68
2021/08/26 07:56:38;;;;;;;22.60;10.43;;;;;;;;;;5084103;28;20032;-68
2021/08/26 07:59:04;;;;;;;24.02;11.13;;;;;;;;;;5085368;28;20068;-67
2021/08/26 08:01:31;;;;;;;23.13;11.07;;;;;;;;;;5088107;28;20059;-67
2021/08/26 08:03:57;;;;;;;22.20;9.85;;;;;;;;;;5092174;28;20577;-66
2021/08/26 08:06:23;;;;;;;19.65;9.70;;;;;;;;;;5088585;28;20053;-66
2021/08/26 08:08:50;;;;;;;20.42;9.63;;;;;;;;;;5090600;28;20019;-67
2021/08/26 08:11:16;;;;;;;22.55;9.73;;;;;;;;;;5087096;28;20034;-66
2021/08/26 08:13:43;;;;;;;21.60;9.05;;;;;;;;;;5091367;28;20028;-68
2021/08/26 08:16:09;;;;;;;24.45;9.55;;;;;;;;;;5086202;28;20032;-67
2021/08/26 08:18:35;;;;;;;17.90;8.52;;;;;;;;;;5090151;28;20431;-71
2021/08/26 08:21:02;;;;;;;22.20;8.57;;;;;;;;;;5084968;28;20539;-68
2021/08/26 08:23:28;;;;;;;23.48;8.93;;;;;;;;;;5089748;28;20115;-68
2021/08/26 08:25:54;;;;;;;23.05;8.68;;;;;;;;;;5091278;28;20031;-67
2021/08/26 08:28:20;;;;;;;15.57;7.15;;;;;;;;;;5088477;28;20039;-69
2021/08/26 08:30:47;;;;;;;20.27;8.07;;;;;;;;;;5090005;28;20035;-68
2021/08/26 08:33:14;;;;;;;23.30;8.15;;;;;;;;;;5082415;28;20032;-68
2021/08/26 08:35:40;;;;;;;27.35;8.57;;;;;;;;;;5090648;28;20058;-68
2021/08/26 08:38:06;;;;;;;17.35;7.95;;;;;;;;;;5090236;28;20414;-71
2021/08/26 08:40:33;;;;;;;19.48;8.15;;;;;;;;;;5083579;28;20028;-69
2021/08/26 08:43:00;;;;;;;22.65;7.80;;;;;;;;;;5087556;28;20495;-67
2021/08/26 08:45:26;;;;;;;19.92;7.68;;;;;;;;;;5085589;28;20012;-68
2021/08/26 08:47:53;;;;;;;27.77;8.43;;;;;;;;;;5084619;28;20031;-68
2021/08/26 08:50:25;;;;;;;21.50;8.20;;;;;;;;;;5087400;28;20442;-67
2021/08/26 08:52:53;;;;;;;15.43;7.70;;;;;;;;;;5087786;28;20084;-67
2021/08/26 08:55:19;;;;;;;20.00;7.50;;;;;;;;;;5083508;28;20074;-69
2021/08/26 08:57:46;;;;;;;20.23;7.80;;;;;;;;;;5086184;28;20552;-72
2021/08/26 09:00:16;;;;;;;16.52;7.30;;;;;;;;;;5088794;28;20020;-69
2021/08/26 09:02:43;;;;;;;22.92;7.85;;;;;;;;;;5085542;28;20035;-68
2021/08/26 09:05:09;;;;;;;20.65;8.18;;;;;;;;;;5089142;28;20395;-72
2021/08/26 09:07:36;;;;;;;22.15;7.82;;;;;;;;;;5085677;28;20036;-67
2021/08/26 09:10:02;;;;;;;18.75;7.80;;;;;;;;;;5087576;28;20111;-67
2021/08/26 09:12:41;;;;;;;22.45;8.38;;;;;;;;;;5088860;28;20496;-67
2021/08/26 09:15:10;;;;;;;20.30;7.95;;;;;;;;;;5088502;28;20024;-67
2021/08/26 09:17:36;;;;;;;20.02;7.22;;;;;;;;;;5089908;28;20490;-67
2021/08/26 09:20:03;;;;;;;18.27;7.45;;;;;;;;;;5088455;28;20084;-68
2021/08/26 09:22:31;;;;;;;20.02;7.50;;;;;;;;;;5091480;28;20608;-67
2021/08/26 09:24:57;;;;;;;26.70;8.85;;;;;;;;;;5084374;28;20403;-69
2021/08/26 09:27:35;;;;;;;17.25;7.93;;;;;;;;;;5092554;28;20100;-68
2021/08/26 09:30:04;;;;;;;20.95;8.45;;;;;;;;;;5087836;28;20027;-67
2021/08/26 09:32:37;;;;;;;22.15;7.97;;;;;;;;;;5090550;28;20047;-67
2021/08/26 09:35:22;;;;;;;18.02;8.63;;;;;;;;;;5088907;28;20100;-68
2021/08/26 09:37:52;;;;;;;19.02;8.70;;;;;;;;;;5088296;28;20055;-67
2021/08/26 09:40:20;;;;;;;21.27;8.48;;;;;;;;;;5084834;28;20673;-68
2021/08/26 09:42:56;;;;;;;19.25;9.63;;;;;;;;;;5087214;28;20119;-68
2021/08/26 09:45:23;;;;;;;23.13;9.80;;;;;;;;;;5081185;28;20145;-68
2021/08/26 09:47:59;;;;;;;20.05;9.48;;;;;;;;;;5086178;28;20035;-69
2021/08/26 09:50:38;;;;;;;17.23;9.60;;;;;;;;;;5086719;28;20468;-71
2021/08/26 09:53:05;;;;;;;14.90;8.75;;;;;;;;;;5092353;28;20043;-71
2021/08/26 09:55:49;;;;;;;16.73;10.10;;;;;;;;;;5085155;28;20040;-68
2021/08/26 09:58:18;;;;;;;22.63;10.35;;;;;;;;;;5090404;28;20076;-68
2021/08/26 10:00:44;;;;;;;17.70;9.55;;;;;;;;;;5083371;28;20028;-69
2021/08/26 10:03:12;;;;;;;17.15;9.88;;;;;;;;;;5077975;28;20447;-73
2021/08/26 10:05:39;;;;;;;14.88;9.57;;;;;;;;;;5086116;28;20028;-68
2021/08/26 10:08:06;;;;;;;16.00;9.80;;;;;;;;;;5086843;28;20030;-67
2021/08/26 10:10:33;;;;;;;17.05;9.98;;;;;;;;;;5083988;28;20028;-68
2021/08/26 10:13:02;;;;;;;17.67;10.25;;;;;;;;;;5083769;28;20078;-69
2021/08/26 10:15:28;;;;;;;14.52;9.57;;;;;;;;;;5088794;28;20032;-70
2021/08/26 10:17:55;;;;;;;17.45;9.32;;;;;;;;;;5064489;28;20026;-69
2021/08/26 10:20:21;;;;;;;18.80;10.10;;;;;;;;;;5089533;28;20034;-67
2021/08/26 10:22:48;;;;;;;14.18;8.82;;;;;;;;;;5086742;28;20032;-70
2021/08/26 10:25:14;;;;;;;13.13;9.23;;;;;;;;;;5090520;28;20024;-67
2021/08/26 10:27:40;;;;;;;16.90;9.55;;;;;;;;;;5085355;28;20036;-67
2021/08/26 10:30:07;;;;;;;17.95;9.18;;;;;;;;;;5091508;28;20085;-69
2021/08/26 10:32:33;;;;;;;26.25;9.45;;;;;;;;;;5090951;28;20023;-70
2021/08/26 10:35:13;;;;;;;15.90;9.40;;;;;;;;;;5092024;28;20472;-70
2021/08/26 10:37:43;;;;;;;17.00;9.60;;;;;;;;;;5090188;28;20084;-68
2021/08/26 10:40:28;;;;;;;18.67;10.00;;;;;;;;;;5091024;28;20032;-68
2021/08/26 10:42:55;;;;;;;18.35;10.15;;;;;;;;;;5089930;28;20042;-72
2021/08/26 10:45:27;;;;;;;17.50;10.52;;;;;;;;;;5079039;28;20377;-67
2021/08/26 10:47:54;;;;;;;18.95;10.20;;;;;;;;;;5089107;28;20449;-68
2021/08/26 10:50:22;;;;;;;19.33;9.70;;;;;;;;;;5092643;28;20636;-67
2021/08/26 10:52:57;;;;;;;16.20;9.55;;;;;;;;;;5088899;28;20028;-67
2021/08/26 10:55:39;;;;;;;17.65;9.65;;;;;;;;;;5089500;28;20067;-66
2021/08/26 10:58:24;;;;;;;19.08;10.10;;;;;;;;;;5092283;28;20075;-67
2021/08/26 11:00:54;;;;;;;17.13;11.43;;;;;;;;;;5092785;28;20023;-67
2021/08/26 11:03:36;;;;;;;19.85;10.23;;;;;;;;;;5073967;28;20949;-67
2021/08/26 11:06:22;;;;;;;16.23;10.07;;;;;;;;;;5089724;28;20426;-68
2021/08/26 11:08:52;;;;;;;16.15;9.10;;;;;;;;;;5074693;28;20073;-69
2021/08/26 11:11:27;;;;;;;15.45;9.88;;;;;;;;;;5089791;28;20539;-68
2021/08/26 11:13:54;;;;;;;17.00;10.13;;;;;;;;;;5091987;28;20527;-66
2021/08/26 11:16:25;;;;;;;22.77;10.63;;;;;;;;;;5087015;28;20032;-66
2021/08/26 11:18:53;;;;;;;13.25;9.52;;;;;;;;;;5094206;28;20096;-65
2021/08/26 11:21:37;;;;;;;17.70;9.63;;;;;;;;;;5088595;28;20036;-66
2021/08/26 11:24:04;;;;;;;20.10;11.18;;;;;;;;;;5090611;28;20039;-66
2021/08/26 11:26:43;;;;;;;12.73;9.50;;;;;;;;;;5089953;28;20393;-66
2021/08/26 11:29:18;;;;;;;12.90;9.05;;;;;;;;;;5091659;28;20089;-66
2021/08/26 11:32:04;;;;;;;19.35;9.90;;;;;;;;;;5085115;28;20023;-65
2021/08/26 11:34:35;;;;;;;17.40;9.45;;;;;;;;;;5089772;28;20384;-65
2021/08/26 11:37:07;;;;;;;15.57;9.73;;;;;;;;;;5092016;28;20040;-65
2021/08/26 11:39:37;;;;;;;17.80;9.13;;;;;;;;;;5094330;28;20028;-65
2021/08/26 11:42:04;;;;;;;13.13;8.93;;;;;;;;;;5088536;28;20224;-66
2021/08/26 11:44:31;;;;;;;11.57;8.55;;;;;;;;;;5092431;28;20028;-68
2021/08/26 11:46:57;;;;;;;13.73;8.68;;;;;;;;;;5072689;28;20556;-65
2021/08/26 11:49:37;;;;;;;17.17;8.35;;;;;;;;;;5091794;28;20028;-67
2021/08/26 11:52:07;;;;;;;17.23;8.82;;;;;;;;;;5091426;28;20030;-66
2021/08/26 11:54:43;;;;;;;11.48;8.00;;;;;;;;;;5091327;28;20036;-66
2021/08/26 11:57:10;;;;;;;14.23;9.43;;;;;;;;;;5089938;28;20044;-66
2021/08/26 11:59:37;;;;;;;14.73;9.15;;;;;;;;;;5091152;28;20228;-66
2021/08/26 12:02:15;;;;;;;13.00;9.48;;;;;;;;;;5092389;28;20072;-65
2021/08/26 12:04:42;;;;;;;12.25;9.02;;;;;;;;;;5090858;28;20485;-66
2021/08/26 12:07:08;;;;;;;12.85;8.50;;;;;;;;;;5091020;28;20027;-66
2021/08/26 12:09:34;;;;;;;16.95;8.93;;;;;;;;;;5088341;28;20016;-66
2021/08/26 12:12:13;;;;;;;14.65;8.70;;;;;;;;;;5093552;28;20031;-66
2021/08/26 12:14:39;;;;;;;16.17;8.07;;;;;;;;;;5086507;28;20163;-66
2021/08/26 12:17:12;;;;;;;12.43;8.27;;;;;;;;;;5092194;28;20560;-66
2021/08/26 12:19:39;;;;;;;10.13;7.40;;;;;;;;;;5088315;28;20044;-65
2021/08/26 12:22:05;;;;;;;14.35;7.68;;;;;;;;;;5090669;28;20088;-66
2021/08/26 12:24:31;;;;;;;10.52;7.15;;;;;;;;;;5090491;28;20094;-66
2021/08/26 12:27:08;;;;;;;13.00;8.65;;;;;;;;;;5072902;28;20047;-66
2021/08/26 12:29:44;;;;;;;15.95;8.23;;;;;;;;;;5084124;28;20020;-66
2021/08/26 12:32:33;;;;;;;13.30;7.63;;;;;;;;;;5093357;28;20206;-67
2021/08/26 12:35:20;;;;;;;14.98;7.57;;;;;;;;;;5090633;28;20032;-66
2021/08/26 12:37:52;;;;;;;11.07;7.15;;;;;;;;;;5088831;28;20040;-66
2021/08/26 12:40:18;;;;;;;12.40;7.63;;;;;;;;;;5090345;28;20031;-66
2021/08/26 12:43:01;;;;;;;13.63;7.57;;;;;;;;;;5092373;28;20207;-66
2021/08/26 12:45:28;;;;;;;13.65;7.68;;;;;;;;;;5086194;28;20494;-66
2021/08/26 12:47:54;;;;;;;16.75;7.93;;;;;;;;;;5086358;28;20479;-66
2021/08/26 12:50:31;;;;;;;8.65;6.28;;;;;;;;;;5087134;28;20510;-65
2021/08/26 12:52:57;;;;;;;16.65;7.35;;;;;;;;;;5089991;28;20361;-66
2021/08/26 12:55:24;;;;;;;13.35;7.30;;;;;;;;;;5091173;28;20469;-66
2021/08/26 12:57:50;;;;;;;13.25;7.93;;;;;;;;;;5088912;28;20059;-66
2021/08/26 13:00:39;;;;;;;13.63;7.45;;;;;;;;;;5092147;28;20020;-66
2021/08/26 13:03:05;;;;;;;10.07;6.47;;;;;;;;;;5081517;28;20126;-65
2021/08/26 13:05:43;;;;;;;13.20;7.80;;;;;;;;;;5090505;28;20027;-66
2021/08/26 13:08:09;;;;;;;14.40;7.35;;;;;;;;;;5089668;28;20020;-66
2021/08/26 13:10:35;;;;;;;18.13;7.88;;;;;;;;;;5088118;28;20464;-66
2021/08/26 13:13:16;;;;;;;15.82;8.50;;;;;;;;;;5088559;28;20379;-66
2021/08/26 13:15:43;;;;;;;16.98;8.02;;;;;;;;;;5088971;28;20028;-65
2021/08/26 13:18:09;;;;;;;12.57;7.60;;;;;;;;;;5087617;28;20127;-66
2021/08/26 13:20:37;;;;;;;8.57;7.65;;;;;;;;;;5090807;28;20016;-66
2021/08/26 13:23:07;;;;;;;11.35;8.15;;;;;;;;;;5087341;28;20441;-66
2021/08/26 13:25:33;;;;;;;14.00;8.32;;;;;;;;;;5088899;28;20091;-66
2021/08/26 13:27:59;;;;;;;12.90;7.80;;;;;;;;;;5087908;28;20024;-66
2021/08/26 13:30:25;;;;;;;18.48;8.35;;;;;;;;;;5091574;28;20024;-68
2021/08/26 13:32:51;;;;;;;14.75;7.55;;;;;;;;;;5087889;28;20020;-66
2021/08/26 13:35:17;;;;;;;13.77;7.70;;;;;;;;;;5089721;28;20019;-66
2021/08/26 13:37:45;;;;;;;11.45;8.68;;;;;;;;;;5089718;28;20107;-66
2021/08/26 13:40:12;;;;;;;19.02;9.05;;;;;;;;;;5087074;28;20097;-66
2021/08/26 13:42:39;;;;;;;24.80;9.73;;;;;;;;;;5088520;28;20028;-66
2021/08/26 13:45:06;;;;;;;19.77;9.63;;;;;;;;;;5086921;28;20103;-66
2021/08/26 13:47:33;;;;;;;12.00;8.43;;;;;;;;;;5090820;28;20124;-68
2021/08/26 13:49:59;;;;;;;14.10;8.30;;;;;;;;;;5090980;28;20023;-66
2021/08/26 13:52:26;;;;;;;15.32;8.50;;;;;;;;;;5086211;28;20122;-66
2021/08/26 13:54:53;;;;;;;14.73;8.40;;;;;;;;;;5090815;28;20056;-66
2021/08/26 13:57:19;;;;;;;12.07;7.88;;;;;;;;;;5087319;28;20040;-65
2021/08/26 13:59:45;;;;;;;17.02;9.27;;;;;;;;;;5094347;28;20116;-65
2021/08/26 14:02:12;;;;;;;16.92;8.65;;;;;;;;;;5086556;28;20020;-67
2021/08/26 14:04:38;;;;;;;16.40;8.15;;;;;;;;;;5087297;28;20051;-67
2021/08/26 14:07:07;;;;;;;15.07;7.03;;;;;;;;;;5087948;28;20031;-67
2021/08/26 14:09:33;;;;;;;17.33;7.97;;;;;;;;;;5087835;28;20024;-67
2021/08/26 14:12:00;;;;;;;18.27;8.02;;;;;;;;;;5090288;28;20088;-67
2021/08/26 14:14:26;;;;;;;17.38;7.85;;;;;;;;;;5085807;28;20368;-67
2021/08/26 14:16:53;;;;;;;14.77;7.57;;;;;;;;;;5085086;28;20693;-66
2021/08/26 14:19:19;;;;;;;14.93;7.90;;;;;;;;;;5087879;28;20028;-67
2021/08/26 14:21:45;;;;;;;17.05;7.93;;;;;;;;;;5090757;28;20058;-68
2021/08/26 14:24:11;;;;;;;16.38;7.30;;;;;;;;;;5089731;28;20399;-68
2021/08/26 14:26:37;;;;;;;15.35;7.78;;;;;;;;;;5084493;28;20406;-70
2021/08/26 14:29:04;;;;;;;13.23;7.20;;;;;;;;;;5090370;28;20349;-70
2021/08/26 14:31:30;;;;;;;34.53;9.50;;;;;;;;;;5087828;28;20036;-69
2021/08/26 14:33:56;;;;;;;17.48;7.78;;;;;;;;;;5089468;28;20020;-68